sensor_id;sensor_type;location;lat;lon;timestamp;temperature;humidity
60495;DHT22;46342;49.046;11.920;2023-05-23T00:00:24;19.60;46.20
60495;DHT22;46342;49.046;11.920;2023-05-23T00:02:50;19.50;46.10
60495;DHT22;46342;49.046;11.920;2023-05-23T00:05:17;19.50;46.20
60495;DHT22;46342;49.046;11.920;2023-05-23T00:07:43;19.50;46.30
60495;DHT22;46342;49.046;11.920;2023-05-23T00:10:10;19.50;46.40
60495;DHT22;46342;49.046;11.920;2023-05-23T00:12:35;19.50;46.40
60495;DHT22;46342;49.046;11.920;2023-05-23T00:15:04;19.50;46.50
60495;DHT22;46342;49.046;11.920;2023-05-23T00:17:33;19.50;46.50
60495;DHT22;46342;49.046;11.920;2023-05-23T00:20:01;19.50;46.50
60495;DHT22;46342;49.046;11.920;2023-05-23T00:22:27;19.50;46.50
60495;DHT22;46342;49.046;11.920;2023-05-23T00:24:52;19.40;46.50
60495;DHT22;46342;49.046;11.920;2023-05-23T00:27:18;19.40;47.10
60495;DHT22;46342;49.046;11.920;2023-05-23T00:29:43;19.40;46.60
60495;DHT22;46342;49.046;11.920;2023-05-23T00:32:09;19.40;46.70
60495;DHT22;46342;49.046;11.920;2023-05-23T00:34:34;19.40;46.80
60495;DHT22;46342;49.046;11.920;2023-05-23T00:37:01;19.40;46.90
60495;DHT22;46342;49.046;11.920;2023-05-23T00:39:26;19.30;46.80
60495;DHT22;46342;49.046;11.920;2023-05-23T00:41:52;19.30;46.90
60495;DHT22;46342;49.046;11.920;2023-05-23T00:44:17;19.30;47.00
60495;DHT22;46342;49.046;11.920;2023-05-23T00:46:48;19.30;47.20
60495;DHT22;46342;49.046;11.920;2023-05-23T00:49:15;19.30;47.60
60495;DHT22;46342;49.046;11.920;2023-05-23T00:51:44;19.30;47.30
60495;DHT22;46342;49.046;11.920;2023-05-23T00:54:11;19.30;47.40
60495;DHT22;46342;49.046;11.920;2023-05-23T00:56:37;19.30;47.60
60495;DHT22;46342;49.046;11.920;2023-05-23T00:59:04;19.30;47.60
60495;DHT22;46342;49.046;11.920;2023-05-23T01:01:30;19.30;47.70
60495;DHT22;46342;49.046;11.920;2023-05-23T01:03:56;19.30;47.60
60495;DHT22;46342;49.046;11.920;2023-05-23T01:06:22;19.30;47.70
60495;DHT22;46342;49.046;11.920;2023-05-23T01:08:48;19.30;47.80
60495;DHT22;46342;49.046;11.920;2023-05-23T01:11:29;19.30;47.90
60495;DHT22;46342;49.046;11.920;2023-05-23T01:14:06;19.40;49.10
60495;DHT22;46342;49.046;11.920;2023-05-23T01:17:01;19.40;48.60
60495;DHT22;46342;49.046;11.920;2023-05-23T01:22:09;19.40;48.50
60495;DHT22;46342;49.046;11.920;2023-05-23T01:27:54;19.30;48.70
60495;DHT22;46342;49.046;11.920;2023-05-23T01:30:23;19.40;49.40
60495;DHT22;46342;49.046;11.920;2023-05-23T01:32:50;19.30;48.50
60495;DHT22;46342;49.046;11.920;2023-05-23T01:35:24;19.30;48.60
60495;DHT22;46342;49.046;11.920;2023-05-23T01:37:52;19.30;48.90
60495;DHT22;46342;49.046;11.920;2023-05-23T01:40:17;19.30;48.80
60495;DHT22;46342;49.046;11.920;2023-05-23T01:42:43;19.30;48.70
60495;DHT22;46342;49.046;11.920;2023-05-23T01:45:09;19.30;48.70
60495;DHT22;46342;49.046;11.920;2023-05-23T01:47:36;19.30;48.70
60495;DHT22;46342;49.046;11.920;2023-05-23T01:50:03;19.30;48.80
60495;DHT22;46342;49.046;11.920;2023-05-23T01:52:28;19.30;48.90
60495;DHT22;46342;49.046;11.920;2023-05-23T01:54:54;19.30;48.90
60495;DHT22;46342;49.046;11.920;2023-05-23T01:57:21;19.30;48.90
60495;DHT22;46342;49.046;11.920;2023-05-23T01:59:48;19.30;49.30
60495;DHT22;46342;49.046;11.920;2023-05-23T02:02:14;19.20;49.10
60495;DHT22;46342;49.046;11.920;2023-05-23T02:04:40;19.30;49.30
60495;DHT22;46342;49.046;11.920;2023-05-23T02:07:05;19.30;49.50
60495;DHT22;46342;49.046;11.920;2023-05-23T02:09:31;19.30;49.60
60495;DHT22;46342;49.046;11.920;2023-05-23T02:11:57;19.30;49.70
60495;DHT22;46342;49.046;11.920;2023-05-23T02:14:23;19.30;49.70
60495;DHT22;46342;49.046;11.920;2023-05-23T02:16:50;19.30;49.80
60495;DHT22;46342;49.046;11.920;2023-05-23T02:19:16;19.40;49.80
60495;DHT22;46342;49.046;11.920;2023-05-23T02:21:42;19.40;49.90
60495;DHT22;46342;49.046;11.920;2023-05-23T02:24:07;19.40;49.90
60495;DHT22;46342;49.046;11.920;2023-05-23T02:26:33;19.40;49.90
60495;DHT22;46342;49.046;11.920;2023-05-23T02:28:58;19.40;50.00
60495;DHT22;46342;49.046;11.920;2023-05-23T02:31:25;19.40;50.00
60495;DHT22;46342;49.046;11.920;2023-05-23T02:33:50;19.40;50.10
60495;DHT22;46342;49.046;11.920;2023-05-23T02:36:16;19.40;50.10
60495;DHT22;46342;49.046;11.920;2023-05-23T02:38:41;19.40;50.00
60495;DHT22;46342;49.046;11.920;2023-05-23T02:41:07;19.40;50.00
60495;DHT22;46342;49.046;11.920;2023-05-23T02:43:32;19.40;50.10
60495;DHT22;46342;49.046;11.920;2023-05-23T02:45:58;19.40;50.10
60495;DHT22;46342;49.046;11.920;2023-05-23T02:48:23;19.50;50.20
60495;DHT22;46342;49.046;11.920;2023-05-23T02:50:49;19.40;50.20
60495;DHT22;46342;49.046;11.920;2023-05-23T02:53:14;19.40;50.30
60495;DHT22;46342;49.046;11.920;2023-05-23T02:55:40;19.40;50.40
60495;DHT22;46342;49.046;11.920;2023-05-23T02:58:07;19.40;50.40
60495;DHT22;46342;49.046;11.920;2023-05-23T03:00:33;19.40;50.50
60495;DHT22;46342;49.046;11.920;2023-05-23T03:02:59;19.40;50.60
60495;DHT22;46342;49.046;11.920;2023-05-23T03:05:24;19.40;50.60
60495;DHT22;46342;49.046;11.920;2023-05-23T03:07:50;19.40;50.60
60495;DHT22;46342;49.046;11.920;2023-05-23T03:10:16;19.40;50.70
60495;DHT22;46342;49.046;11.920;2023-05-23T03:12:42;19.40;50.90
60495;DHT22;46342;49.046;11.920;2023-05-23T03:15:09;19.40;50.80
60495;DHT22;46342;49.046;11.920;2023-05-23T03:17:34;19.40;50.90
60495;DHT22;46342;49.046;11.920;2023-05-23T03:20:00;19.40;51.00
60495;DHT22;46342;49.046;11.920;2023-05-23T03:22:25;19.40;51.10
60495;DHT22;46342;49.046;11.920;2023-05-23T03:24:51;19.40;51.10
60495;DHT22;46342;49.046;11.920;2023-05-23T03:27:16;19.50;51.20
60495;DHT22;46342;49.046;11.920;2023-05-23T03:29:42;19.40;51.20
60495;DHT22;46342;49.046;11.920;2023-05-23T03:32:07;19.40;51.20
60495;DHT22;46342;49.046;11.920;2023-05-23T03:34:33;19.40;51.10
60495;DHT22;46342;49.046;11.920;2023-05-23T03:36:58;19.40;51.10
60495;DHT22;46342;49.046;11.920;2023-05-23T03:39:24;19.40;51.10
60495;DHT22;46342;49.046;11.920;2023-05-23T03:41:50;19.40;51.20
60495;DHT22;46342;49.046;11.920;2023-05-23T03:44:15;19.40;51.30
60495;DHT22;46342;49.046;11.920;2023-05-23T03:46:41;19.40;51.20
60495;DHT22;46342;49.046;11.920;2023-05-23T03:49:06;19.40;51.40
60495;DHT22;46342;49.046;11.920;2023-05-23T03:51:33;19.40;51.40
60495;DHT22;46342;49.046;11.920;2023-05-23T03:53:58;19.40;51.50
60495;DHT22;46342;49.046;11.920;2023-05-23T03:56:24;19.40;51.50
60495;DHT22;46342;49.046;11.920;2023-05-23T03:58:50;19.40;51.60
60495;DHT22;46342;49.046;11.920;2023-05-23T04:01:16;19.40;51.70
60495;DHT22;46342;49.046;11.920;2023-05-23T04:03:41;19.40;51.70
60495;DHT22;46342;49.046;11.920;2023-05-23T04:06:07;19.40;51.70
60495;DHT22;46342;49.046;11.920;2023-05-23T04:08:32;19.40;51.70
60495;DHT22;46342;49.046;11.920;2023-05-23T04:10:59;19.40;51.70
60495;DHT22;46342;49.046;11.920;2023-05-23T04:13:26;19.40;51.90
60495;DHT22;46342;49.046;11.920;2023-05-23T04:15:52;19.30;51.80
60495;DHT22;46342;49.046;11.920;2023-05-23T04:18:20;19.40;51.80
60495;DHT22;46342;49.046;11.920;2023-05-23T04:20:46;19.50;52.50
60495;DHT22;46342;49.046;11.920;2023-05-23T04:23:12;19.40;51.70
60495;DHT22;46342;49.046;11.920;2023-05-23T04:25:37;19.40;51.80
60495;DHT22;46342;49.046;11.920;2023-05-23T04:28:04;19.40;52.10
60495;DHT22;46342;49.046;11.920;2023-05-23T04:30:29;19.40;52.20
60495;DHT22;46342;49.046;11.920;2023-05-23T04:32:55;19.40;52.30
60495;DHT22;46342;49.046;11.920;2023-05-23T04:35:24;19.40;52.40
60495;DHT22;46342;49.046;11.920;2023-05-23T04:37:53;19.40;52.60
60495;DHT22;46342;49.046;11.920;2023-05-23T04:40:21;19.40;52.70
60495;DHT22;46342;49.046;11.920;2023-05-23T04:42:47;19.40;52.80
60495;DHT22;46342;49.046;11.920;2023-05-23T04:45:14;19.40;52.70
60495;DHT22;46342;49.046;11.920;2023-05-23T04:47:39;19.50;52.90
60495;DHT22;46342;49.046;11.920;2023-05-23T04:50:06;19.50;53.00
60495;DHT22;46342;49.046;11.920;2023-05-23T04:52:32;19.50;53.20
60495;DHT22;46342;49.046;11.920;2023-05-23T04:54:59;19.50;53.20
60495;DHT22;46342;49.046;11.920;2023-05-23T04:57:24;19.60;53.40
60495;DHT22;46342;49.046;11.920;2023-05-23T04:59:50;19.50;53.30
60495;DHT22;46342;49.046;11.920;2023-05-23T05:02:16;19.60;53.50
60495;DHT22;46342;49.046;11.920;2023-05-23T05:04:41;19.60;53.50
60495;DHT22;46342;49.046;11.920;2023-05-23T05:07:07;19.70;53.60
60495;DHT22;46342;49.046;11.920;2023-05-23T05:09:32;19.70;53.60
60495;DHT22;46342;49.046;11.920;2023-05-23T05:11:58;19.70;53.70
60495;DHT22;46342;49.046;11.920;2023-05-23T05:14:25;19.70;53.70
60495;DHT22;46342;49.046;11.920;2023-05-23T05:16:51;19.80;53.90
60495;DHT22;46342;49.046;11.920;2023-05-23T05:19:16;19.80;53.80
60495;DHT22;46342;49.046;11.920;2023-05-23T05:21:42;19.80;53.70
60495;DHT22;46342;49.046;11.920;2023-05-23T05:24:07;19.90;53.80
60495;DHT22;46342;49.046;11.920;2023-05-23T05:26:37;19.90;53.80
60495;DHT22;46342;49.046;11.920;2023-05-23T05:29:03;19.90;53.80
60495;DHT22;46342;49.046;11.920;2023-05-23T05:31:28;19.90;53.80
60495;DHT22;46342;49.046;11.920;2023-05-23T05:33:54;20.00;53.80
60495;DHT22;46342;49.046;11.920;2023-05-23T05:36:19;20.00;53.90
60495;DHT22;46342;49.046;11.920;2023-05-23T05:38:46;20.00;53.90
60495;DHT22;46342;49.046;11.920;2023-05-23T05:41:12;20.00;54.00
60495;DHT22;46342;49.046;11.920;2023-05-23T05:43:37;20.00;54.00
60495;DHT22;46342;49.046;11.920;2023-05-23T05:46:03;20.10;54.00
60495;DHT22;46342;49.046;11.920;2023-05-23T05:48:29;20.10;54.00
60495;DHT22;46342;49.046;11.920;2023-05-23T05:50:54;20.10;54.00
60495;DHT22;46342;49.046;11.920;2023-05-23T05:53:20;20.10;54.10
60495;DHT22;46342;49.046;11.920;2023-05-23T05:55:45;20.10;54.20
60495;DHT22;46342;49.046;11.920;2023-05-23T05:58:11;20.20;54.20
60495;DHT22;46342;49.046;11.920;2023-05-23T06:00:36;20.20;54.20
60495;DHT22;46342;49.046;11.920;2023-05-23T06:03:07;20.10;54.20
60495;DHT22;46342;49.046;11.920;2023-05-23T06:05:33;20.30;54.40
60495;DHT22;46342;49.046;11.920;2023-05-23T06:07:58;20.30;54.40
60495;DHT22;46342;49.046;11.920;2023-05-23T06:10:24;20.30;54.40
60495;DHT22;46342;49.046;11.920;2023-05-23T06:12:50;20.30;54.30
60495;DHT22;46342;49.046;11.920;2023-05-23T06:15:15;20.40;54.40
60495;DHT22;46342;49.046;11.920;2023-05-23T06:17:41;20.40;54.40
60495;DHT22;46342;49.046;11.920;2023-05-23T06:20:10;20.50;54.50
60495;DHT22;46342;49.046;11.920;2023-05-23T06:22:35;20.50;54.60
60495;DHT22;46342;49.046;11.920;2023-05-23T06:25:01;20.50;54.50
60495;DHT22;46342;49.046;11.920;2023-05-23T06:27:27;20.60;54.70
60495;DHT22;46342;49.046;11.920;2023-05-23T06:29:52;20.60;54.70
60495;DHT22;46342;49.046;11.920;2023-05-23T06:32:18;20.70;54.80
60495;DHT22;46342;49.046;11.920;2023-05-23T06:34:43;20.70;54.80
60495;DHT22;46342;49.046;11.920;2023-05-23T06:37:09;20.90;54.90
60495;DHT22;46342;49.046;11.920;2023-05-23T06:39:34;20.90;55.40
60495;DHT22;46342;49.046;11.920;2023-05-23T06:42:00;21.00;54.90
60495;DHT22;46342;49.046;11.920;2023-05-23T06:44:26;21.10;54.80
60495;DHT22;46342;49.046;11.920;2023-05-23T06:46:52;21.10;54.70
60495;DHT22;46342;49.046;11.920;2023-05-23T06:49:22;21.20;54.70
60495;DHT22;46342;49.046;11.920;2023-05-23T06:51:48;21.30;54.70
60495;DHT22;46342;49.046;11.920;2023-05-23T06:54:13;21.30;54.50
60495;DHT22;46342;49.046;11.920;2023-05-23T06:56:39;21.30;55.10
60495;DHT22;46342;49.046;11.920;2023-05-23T06:59:04;21.40;54.50
60495;DHT22;46342;49.046;11.920;2023-05-23T07:01:30;21.40;54.40
60495;DHT22;46342;49.046;11.920;2023-05-23T07:03:56;21.40;54.30
60495;DHT22;46342;49.046;11.920;2023-05-23T07:06:21;21.50;54.40
60495;DHT22;46342;49.046;11.920;2023-05-23T07:08:47;21.50;54.30
60495;DHT22;46342;49.046;11.920;2023-05-23T07:11:13;21.60;54.30
60495;DHT22;46342;49.046;11.920;2023-05-23T07:13:38;21.60;54.30
60495;DHT22;46342;49.046;11.920;2023-05-23T07:16:04;21.60;54.30
60495;DHT22;46342;49.046;11.920;2023-05-23T07:18:30;21.60;54.30
60495;DHT22;46342;49.046;11.920;2023-05-23T07:20:55;21.70;54.30
60495;DHT22;46342;49.046;11.920;2023-05-23T07:23:22;21.70;54.30
60495;DHT22;46342;49.046;11.920;2023-05-23T07:25:48;21.80;54.50
60495;DHT22;46342;49.046;11.920;2023-05-23T07:28:14;21.80;54.40
60495;DHT22;46342;49.046;11.920;2023-05-23T07:30:40;21.80;54.40
60495;DHT22;46342;49.046;11.920;2023-05-23T07:33:06;21.90;54.50
60495;DHT22;46342;49.046;11.920;2023-05-23T07:35:31;21.90;54.40
60495;DHT22;46342;49.046;11.920;2023-05-23T07:37:57;21.90;54.30
60495;DHT22;46342;49.046;11.920;2023-05-23T07:40:22;22.00;54.30
60495;DHT22;46342;49.046;11.920;2023-05-23T07:42:48;22.00;54.30
60495;DHT22;46342;49.046;11.920;2023-05-23T07:45:14;22.00;54.20
60495;DHT22;46342;49.046;11.920;2023-05-23T07:47:40;22.10;54.20
60495;DHT22;46342;49.046;11.920;2023-05-23T07:50:06;22.10;54.00
60495;DHT22;46342;49.046;11.920;2023-05-23T07:52:32;22.20;54.00
60495;DHT22;46342;49.046;11.920;2023-05-23T07:54:58;22.20;53.90
60495;DHT22;46342;49.046;11.920;2023-05-23T07:57:24;22.20;53.90
60495;DHT22;46342;49.046;11.920;2023-05-23T07:59:51;22.20;53.80
60495;DHT22;46342;49.046;11.920;2023-05-23T08:02:17;22.30;53.90
60495;DHT22;46342;49.046;11.920;2023-05-23T08:04:42;22.30;53.80
60495;DHT22;46342;49.046;11.920;2023-05-23T08:07:09;22.30;53.70
60495;DHT22;46342;49.046;11.920;2023-05-23T08:09:39;22.30;53.60
60495;DHT22;46342;49.046;11.920;2023-05-23T08:12:05;22.40;53.70
60495;DHT22;46342;49.046;11.920;2023-05-23T08:14:31;22.40;53.70
60495;DHT22;46342;49.046;11.920;2023-05-23T08:16:57;22.50;54.10
60495;DHT22;46342;49.046;11.920;2023-05-23T08:19:22;22.50;53.70
60495;DHT22;46342;49.046;11.920;2023-05-23T08:21:48;22.50;53.60
60495;DHT22;46342;49.046;11.920;2023-05-23T08:24:13;22.60;53.70
60495;DHT22;46342;49.046;11.920;2023-05-23T08:26:39;22.70;53.80
60495;DHT22;46342;49.046;11.920;2023-05-23T08:29:06;22.70;53.70
60495;DHT22;46342;49.046;11.920;2023-05-23T08:31:32;22.80;53.70
60495;DHT22;46342;49.046;11.920;2023-05-23T08:33:58;22.90;53.70
60495;DHT22;46342;49.046;11.920;2023-05-23T08:36:23;22.90;53.50
60495;DHT22;46342;49.046;11.920;2023-05-23T08:38:50;23.00;53.30
60495;DHT22;46342;49.046;11.920;2023-05-23T08:41:23;23.10;53.30
60495;DHT22;46342;49.046;11.920;2023-05-23T08:43:49;23.20;53.20
60495;DHT22;46342;49.046;11.920;2023-05-23T08:46:15;23.30;53.20
60495;DHT22;46342;49.046;11.920;2023-05-23T08:48:42;23.30;53.00
60495;DHT22;46342;49.046;11.920;2023-05-23T08:51:09;23.40;52.90
60495;DHT22;46342;49.046;11.920;2023-05-23T08:53:40;23.50;52.90
60495;DHT22;46342;49.046;11.920;2023-05-23T08:56:07;23.50;52.60
60495;DHT22;46342;49.046;11.920;2023-05-23T08:58:34;23.60;52.60
60495;DHT22;46342;49.046;11.920;2023-05-23T09:01:00;23.60;52.50
60495;DHT22;46342;49.046;11.920;2023-05-23T09:03:26;23.70;52.30
60495;DHT22;46342;49.046;11.920;2023-05-23T09:05:53;23.70;52.20
60495;DHT22;46342;49.046;11.920;2023-05-23T09:08:19;23.80;52.20
60495;DHT22;46342;49.046;11.920;2023-05-23T09:10:45;23.80;52.20
60495;DHT22;46342;49.046;11.920;2023-05-23T09:13:11;23.80;52.10
60495;DHT22;46342;49.046;11.920;2023-05-23T09:15:36;23.80;51.80
60495;DHT22;46342;49.046;11.920;2023-05-23T09:18:03;23.90;51.70
60495;DHT22;46342;49.046;11.920;2023-05-23T09:20:28;23.90;51.70
60495;DHT22;46342;49.046;11.920;2023-05-23T09:22:54;23.90;51.60
60495;DHT22;46342;49.046;11.920;2023-05-23T09:25:20;24.00;51.60
60495;DHT22;46342;49.046;11.920;2023-05-23T09:27:46;24.00;51.50
60495;DHT22;46342;49.046;11.920;2023-05-23T09:30:12;24.00;51.40
60495;DHT22;46342;49.046;11.920;2023-05-23T09:32:38;24.00;51.30
60495;DHT22;46342;49.046;11.920;2023-05-23T09:35:07;24.00;51.10
60495;DHT22;46342;49.046;11.920;2023-05-23T09:37:38;24.00;50.70
60495;DHT22;46342;49.046;11.920;2023-05-23T09:40:09;24.10;50.90
60495;DHT22;46342;49.046;11.920;2023-05-23T09:42:41;24.00;50.60
60495;DHT22;46342;49.046;11.920;2023-05-23T09:45:08;24.00;50.60
60495;DHT22;46342;49.046;11.920;2023-05-23T09:47:34;24.00;50.60
60495;DHT22;46342;49.046;11.920;2023-05-23T09:49:59;24.00;50.50
60495;DHT22;46342;49.046;11.920;2023-05-23T09:52:25;23.90;50.40
60495;DHT22;46342;49.046;11.920;2023-05-23T09:54:51;24.00;50.50
60495;DHT22;46342;49.046;11.920;2023-05-23T09:57:18;23.90;50.40
60495;DHT22;46342;49.046;11.920;2023-05-23T09:59:52;23.90;50.50
60495;DHT22;46342;49.046;11.920;2023-05-23T10:02:43;23.90;50.30
60495;DHT22;46342;49.046;11.920;2023-05-23T10:08:08;23.90;50.50
60495;DHT22;46342;49.046;11.920;2023-05-23T10:13:24;23.90;50.60
60495;DHT22;46342;49.046;11.920;2023-05-23T10:15:54;23.80;50.50
60495;DHT22;46342;49.046;11.920;2023-05-23T10:18:25;23.90;50.50
60495;DHT22;46342;49.046;11.920;2023-05-23T10:20:56;24.00;50.60
60495;DHT22;46342;49.046;11.920;2023-05-23T10:23:23;24.00;50.50
60495;DHT22;46342;49.046;11.920;2023-05-23T10:25:50;24.00;51.10
60495;DHT22;46342;49.046;11.920;2023-05-23T10:28:15;24.10;50.50
60495;DHT22;46342;49.046;11.920;2023-05-23T10:30:42;24.00;50.30
60495;DHT22;46342;49.046;11.920;2023-05-23T10:33:08;24.10;50.90
60495;DHT22;46342;49.046;11.920;2023-05-23T10:35:59;24.10;50.20
60495;DHT22;46342;49.046;11.920;2023-05-23T10:39:01;24.20;50.00
60495;DHT22;46342;49.046;11.920;2023-05-23T10:41:35;24.10;50.00
60495;DHT22;46342;49.046;11.920;2023-05-23T10:44:15;24.10;50.10
60495;DHT22;46342;49.046;11.920;2023-05-23T10:46:55;24.20;50.30
60495;DHT22;46342;49.046;11.920;2023-05-23T10:49:37;24.20;50.40
60495;DHT22;46342;49.046;11.920;2023-05-23T10:52:03;24.20;50.50
60495;DHT22;46342;49.046;11.920;2023-05-23T10:54:34;24.20;50.50
60495;DHT22;46342;49.046;11.920;2023-05-23T10:57:04;24.20;50.40
60495;DHT22;46342;49.046;11.920;2023-05-23T10:59:30;24.30;50.30
60495;DHT22;46342;49.046;11.920;2023-05-23T11:01:56;24.30;50.30
60495;DHT22;46342;49.046;11.920;2023-05-23T11:04:26;24.30;50.20
60495;DHT22;46342;49.046;11.920;2023-05-23T11:06:53;24.40;50.20
60495;DHT22;46342;49.046;11.920;2023-05-23T11:09:19;24.50;50.10
60495;DHT22;46342;49.046;11.920;2023-05-23T11:12:04;24.60;49.90
60495;DHT22;46342;49.046;11.920;2023-05-23T11:20:03;24.70;49.30
60495;DHT22;46342;49.046;11.920;2023-05-23T11:22:30;24.70;49.50
60495;DHT22;46342;49.046;11.920;2023-05-23T11:24:57;24.70;49.60
60495;DHT22;46342;49.046;11.920;2023-05-23T11:27:30;24.80;49.60
60495;DHT22;46342;49.046;11.920;2023-05-23T11:30:17;24.80;49.60
60495;DHT22;46342;49.046;11.920;2023-05-23T11:32:50;24.90;49.50
60495;DHT22;46342;49.046;11.920;2023-05-23T11:35:16;24.90;49.40
60495;DHT22;46342;49.046;11.920;2023-05-23T11:37:43;24.90;50.10
60495;DHT22;46342;49.046;11.920;2023-05-23T11:43:30;25.00;48.40
60495;DHT22;46342;49.046;11.920;2023-05-23T11:45:55;25.00;49.30
60495;DHT22;46342;49.046;11.920;2023-05-23T11:48:21;25.00;48.70
60495;DHT22;46342;49.046;11.920;2023-05-23T11:50:52;25.00;48.70
60495;DHT22;46342;49.046;11.920;2023-05-23T11:53:20;25.00;48.30
60495;DHT22;46342;49.046;11.920;2023-05-23T11:55:57;25.10;48.50
60495;DHT22;46342;49.046;11.920;2023-05-23T11:58:42;25.20;48.20
60495;DHT22;46342;49.046;11.920;2023-05-23T12:01:12;25.20;47.80
60495;DHT22;46342;49.046;11.920;2023-05-23T12:03:49;25.10;48.30
60495;DHT22;46342;49.046;11.920;2023-05-23T12:06:18;25.20;48.20
60495;DHT22;46342;49.046;11.920;2023-05-23T12:08:46;25.30;48.50
60495;DHT22;46342;49.046;11.920;2023-05-23T12:11:12;25.30;48.10
60495;DHT22;46342;49.046;11.920;2023-05-23T12:13:40;25.30;48.20
60495;DHT22;46342;49.046;11.920;2023-05-23T12:16:06;25.50;48.10
60495;DHT22;46342;49.046;11.920;2023-05-23T12:18:32;25.40;48.00
60495;DHT22;46342;49.046;11.920;2023-05-23T12:21:02;25.40;47.60
60495;DHT22;46342;49.046;11.920;2023-05-23T12:23:30;25.50;47.60
60495;DHT22;46342;49.046;11.920;2023-05-23T12:25:56;25.50;47.60
60495;DHT22;46342;49.046;11.920;2023-05-23T12:28:39;25.50;47.40
60495;DHT22;46342;49.046;11.920;2023-05-23T12:31:11;25.60;46.50
60495;DHT22;46342;49.046;11.920;2023-05-23T12:33:40;25.60;46.80
60495;DHT22;46342;49.046;11.920;2023-05-23T12:36:10;25.60;47.20
60495;DHT22;46342;49.046;11.920;2023-05-23T12:38:36;25.60;47.10
60495;DHT22;46342;49.046;11.920;2023-05-23T12:41:18;25.70;47.10
60495;DHT22;46342;49.046;11.920;2023-05-23T12:43:54;25.80;46.90
60495;DHT22;46342;49.046;11.920;2023-05-23T12:46:21;25.80;46.30
60495;DHT22;46342;49.046;11.920;2023-05-23T12:48:48;25.80;46.70
60495;DHT22;46342;49.046;11.920;2023-05-23T12:51:14;25.90;46.70
60495;DHT22;46342;49.046;11.920;2023-05-23T12:53:40;25.90;46.40
60495;DHT22;46342;49.046;11.920;2023-05-23T12:56:06;25.90;46.40
60495;DHT22;46342;49.046;11.920;2023-05-23T12:58:32;26.00;46.30
60495;DHT22;46342;49.046;11.920;2023-05-23T13:00:58;26.00;46.00
60495;DHT22;46342;49.046;11.920;2023-05-23T13:03:38;26.10;45.90
60495;DHT22;46342;49.046;11.920;2023-05-23T13:06:38;26.20;45.10
60495;DHT22;46342;49.046;11.920;2023-05-23T13:09:04;26.20;45.20
60495;DHT22;46342;49.046;11.920;2023-05-23T13:11:29;26.20;45.60
60495;DHT22;46342;49.046;11.920;2023-05-23T13:13:55;26.20;45.50
60495;DHT22;46342;49.046;11.920;2023-05-23T13:16:50;26.20;45.20
60495;DHT22;46342;49.046;11.920;2023-05-23T13:19:16;26.30;44.70
60495;DHT22;46342;49.046;11.920;2023-05-23T13:25:04;26.20;44.00
60495;DHT22;46342;49.046;11.920;2023-05-23T13:27:30;26.10;44.70
60495;DHT22;46342;49.046;11.920;2023-05-23T13:29:56;26.10;44.80
60495;DHT22;46342;49.046;11.920;2023-05-23T13:32:21;26.00;44.80
60495;DHT22;46342;49.046;11.920;2023-05-23T13:34:47;26.00;44.80
60495;DHT22;46342;49.046;11.920;2023-05-23T13:37:12;26.00;44.50
60495;DHT22;46342;49.046;11.920;2023-05-23T13:39:38;26.00;44.40
60495;DHT22;46342;49.046;11.920;2023-05-23T13:42:03;26.00;44.10
60495;DHT22;46342;49.046;11.920;2023-05-23T13:44:29;25.90;43.90
60495;DHT22;46342;49.046;11.920;2023-05-23T13:47:03;25.90;43.90
60495;DHT22;46342;49.046;11.920;2023-05-23T13:49:33;25.80;43.70
60495;DHT22;46342;49.046;11.920;2023-05-23T13:51:59;25.70;43.90
60495;DHT22;46342;49.046;11.920;2023-05-23T13:54:24;25.70;43.80
60495;DHT22;46342;49.046;11.920;2023-05-23T13:56:50;25.60;44.00
60495;DHT22;46342;49.046;11.920;2023-05-23T13:59:15;25.50;44.00
60495;DHT22;46342;49.046;11.920;2023-05-23T14:01:45;25.50;44.00
60495;DHT22;46342;49.046;11.920;2023-05-23T14:04:11;25.40;43.90
60495;DHT22;46342;49.046;11.920;2023-05-23T14:06:37;25.40;44.00
60495;DHT22;46342;49.046;11.920;2023-05-23T14:09:03;25.30;43.60
60495;DHT22;46342;49.046;11.920;2023-05-23T14:11:29;25.30;43.50
60495;DHT22;46342;49.046;11.920;2023-05-23T14:13:55;25.20;43.40
60495;DHT22;46342;49.046;11.920;2023-05-23T14:16:20;25.10;43.50
60495;DHT22;46342;49.046;11.920;2023-05-23T14:18:46;25.10;43.60
60495;DHT22;46342;49.046;11.920;2023-05-23T14:21:11;25.00;43.60
60495;DHT22;46342;49.046;11.920;2023-05-23T14:23:37;25.00;43.80
60495;DHT22;46342;49.046;11.920;2023-05-23T14:26:02;24.90;43.70
60495;DHT22;46342;49.046;11.920;2023-05-23T14:28:28;24.80;43.80
60495;DHT22;46342;49.046;11.920;2023-05-23T14:30:54;24.80;43.80
60495;DHT22;46342;49.046;11.920;2023-05-23T14:33:20;24.80;43.80
60495;DHT22;46342;49.046;11.920;2023-05-23T14:35:46;24.70;43.80
60495;DHT22;46342;49.046;11.920;2023-05-23T14:38:12;24.60;43.80
60495;DHT22;46342;49.046;11.920;2023-05-23T14:40:37;24.60;43.70
60495;DHT22;46342;49.046;11.920;2023-05-23T14:43:03;24.60;43.70
60495;DHT22;46342;49.046;11.920;2023-05-23T14:45:29;24.50;43.60
60495;DHT22;46342;49.046;11.920;2023-05-23T14:47:55;24.50;43.70
60495;DHT22;46342;49.046;11.920;2023-05-23T14:50:21;24.50;43.90
60495;DHT22;46342;49.046;11.920;2023-05-23T14:52:46;24.40;43.90
60495;DHT22;46342;49.046;11.920;2023-05-23T14:55:12;24.40;43.90
60495;DHT22;46342;49.046;11.920;2023-05-23T14:57:40;24.30;43.90
60495;DHT22;46342;49.046;11.920;2023-05-23T15:00:06;24.30;43.90
60495;DHT22;46342;49.046;11.920;2023-05-23T15:02:32;24.30;44.00
60495;DHT22;46342;49.046;11.920;2023-05-23T15:04:57;24.30;44.10
60495;DHT22;46342;49.046;11.920;2023-05-23T15:07:23;24.30;44.20
60495;DHT22;46342;49.046;11.920;2023-05-23T15:09:48;24.30;44.30
60495;DHT22;46342;49.046;11.920;2023-05-23T15:12:14;24.30;44.40
60495;DHT22;46342;49.046;11.920;2023-05-23T15:14:40;24.30;44.40
60495;DHT22;46342;49.046;11.920;2023-05-23T15:17:07;24.30;44.40
60495;DHT22;46342;49.046;11.920;2023-05-23T15:19:34;24.30;44.30
60495;DHT22;46342;49.046;11.920;2023-05-23T15:22:00;24.30;44.20
60495;DHT22;46342;49.046;11.920;2023-05-23T15:24:26;24.30;44.20
60495;DHT22;46342;49.046;11.920;2023-05-23T15:26:52;24.30;44.20
60495;DHT22;46342;49.046;11.920;2023-05-23T15:29:17;24.30;44.20
60495;DHT22;46342;49.046;11.920;2023-05-23T15:31:43;24.40;44.20
60495;DHT22;46342;49.046;11.920;2023-05-23T15:34:09;24.40;44.30
60495;DHT22;46342;49.046;11.920;2023-05-23T15:36:35;24.40;44.30
60495;DHT22;46342;49.046;11.920;2023-05-23T15:39:01;24.50;44.40